Castella, California
Current Conditions -  °F | °C
As of 10:18 AM on Saturday 25 Oct 2014 (Local Time) from KMHS Reporting Station
Light Rain Light Rain  
Wind Chill: 48°   Ceiling: 2700
Heat Index: 48°   Visibility: 2.5mi
Dew Point: 46°   Wind: 0mph
Humidity: 93%   Direction: NA
Pressure: 29.83"   Gusts: NA
Location:  41.14°N, 122.32°W
Report Text: KMHS 251718Z AUTO 00000KT 2 1/2SM -RA BR FEW013 BKN027 OVC037 09/08 A2983 RMK AO2 VIS 2V4 P0003 T00890078
Loading
Personal Weather Stations






























Interactive Weather Map
Tropical Storm Tracking
New forecast layout! Learn more

10-Day Weather Forecast

Advertisements
Track Severe Weather on mobile